createdAt,value
2023-11-20T00:07:06.838Z,0.74
2023-11-20T00:15:30.069Z,0.77
2023-11-20T00:23:53.089Z,0.77
2023-11-20T00:32:16.111Z,0.80
2023-11-20T00:40:39.231Z,0.77
2023-11-20T00:49:06.727Z,0.84
2023-11-20T00:57:29.833Z,0.81
2023-11-20T01:05:53.833Z,0.80
2023-11-20T01:14:18.148Z,0.89
2023-11-20T01:22:41.047Z,0.95
2023-11-20T01:31:04.702Z,0.92
2023-11-20T01:39:28.558Z,1.01
2023-11-20T01:47:51.959Z,1.00
2023-11-20T01:56:15.827Z,0.96
2023-11-20T02:04:40.419Z,1.06
2023-11-20T02:13:05.620Z,1.05
2023-11-20T02:21:28.693Z,1.01
2023-11-20T02:29:55.913Z,1.10
2023-11-20T02:38:19.382Z,1.11
2023-11-20T02:46:44.512Z,1.06
2023-11-20T02:55:08.137Z,1.17
2023-11-20T03:03:32.226Z,1.20
2023-11-20T03:11:55.293Z,1.16
2023-11-20T03:20:18.191Z,1.19
2023-11-20T03:28:42.118Z,1.18
2023-11-20T03:37:05.077Z,1.20
2023-11-20T03:45:28.040Z,1.27
2023-11-20T03:53:51.625Z,1.34
2023-11-20T04:02:17.580Z,1.23
2023-11-20T04:10:40.858Z,1.32
2023-11-20T04:19:04.743Z,1.38
2023-11-20T04:27:28.082Z,1.38
2023-11-20T04:35:52.451Z,1.45
2023-11-20T04:44:16.133Z,1.48
2023-11-20T04:52:39.398Z,1.46
2023-11-20T05:01:04.226Z,1.55
2023-11-20T05:09:27.212Z,1.58
2023-11-20T05:17:50.639Z,1.51
2023-11-20T05:26:13.522Z,1.58
2023-11-20T05:34:36.702Z,1.64
2023-11-20T05:42:59.879Z,1.59
2023-11-20T05:51:22.814Z,1.61
2023-11-20T05:59:46.954Z,1.51
2023-11-20T06:08:10.274Z,1.50
2023-11-20T06:16:33.315Z,1.59
2023-11-20T06:24:56.494Z,1.51
2023-11-20T06:33:21.375Z,1.49
2023-11-20T06:41:44.724Z,1.55
2023-11-20T06:50:08.252Z,1.56
2023-11-20T06:58:34.862Z,1.53
2023-11-20T07:06:57.980Z,1.67
2023-11-20T07:15:25.022Z,1.76
2023-11-20T07:23:48.109Z,1.70
2023-11-20T07:32:11.209Z,1.72
2023-11-20T07:40:34.316Z,1.66
2023-11-20T07:48:57.360Z,1.64
2023-11-20T07:57:21.333Z,1.81
2023-11-20T08:05:49.590Z,1.95
2023-11-20T08:14:16.836Z,1.96
2023-11-20T08:22:41.369Z,2.05
2023-11-20T08:31:06.309Z,2.10
2023-11-20T08:39:33.426Z,2.13
2023-11-20T08:47:58.170Z,2.32
2023-11-20T08:56:21.143Z,2.44
2023-11-20T09:04:44.153Z,2.50
2023-11-20T09:13:09.460Z,2.73
2023-11-20T09:21:33.802Z,2.76
2023-11-20T09:29:59.839Z,2.71
2023-11-20T09:38:22.835Z,2.76
2023-11-20T09:46:46.182Z,2.72
2023-11-20T09:55:09.651Z,2.63
2023-11-20T10:03:33.136Z,2.70
2023-11-20T10:11:57.389Z,2.76
2023-11-20T10:20:20.294Z,2.77
2023-11-20T10:28:43.427Z,2.86
2023-11-20T10:37:10.730Z,2.94
2023-11-20T10:45:35.163Z,2.96
2023-11-20T10:54:05.585Z,2.90
2023-11-20T11:02:29.730Z,2.78
2023-11-20T11:10:53.576Z,2.76
2023-11-20T11:19:22.817Z,2.82
2023-11-20T11:27:58.793Z,2.84
2023-11-20T11:36:24.801Z,2.94
2023-11-20T11:44:49.051Z,3.01
2023-11-20T11:53:12.693Z,3.16
2023-11-20T12:01:48.243Z,3.24
2023-11-20T12:10:14.172Z,3.16
2023-11-20T12:18:38.732Z,3.11
2023-11-20T12:27:01.981Z,3.06
2023-11-20T12:35:25.794Z,2.87
2023-11-20T12:43:49.336Z,2.77
2023-11-20T12:52:12.649Z,2.78
2023-11-20T13:00:36.256Z,2.65
2023-11-20T13:08:59.460Z,2.76
2023-11-20T13:17:23.978Z,2.82
2023-11-20T13:25:49.488Z,2.76
2023-11-20T13:34:12.617Z,2.75
2023-11-20T13:42:36.568Z,2.65
2023-11-20T13:50:59.974Z,2.48
2023-11-20T13:59:23.278Z,2.48
2023-11-20T14:07:46.557Z,2.33
2023-11-20T14:16:13.343Z,2.20
2023-11-20T14:24:36.848Z,2.20
2023-11-20T14:32:59.936Z,2.13
2023-11-20T14:41:23.606Z,2.17
2023-11-20T14:49:47.341Z,2.20
2023-11-20T14:58:10.622Z,2.16
2023-11-20T15:06:34.047Z,2.15
2023-11-20T15:14:56.910Z,2.14
2023-11-20T15:23:20.064Z,2.17
2023-11-20T15:31:43.152Z,2.12
2023-11-20T15:40:10.004Z,2.03
2023-11-20T15:48:33.307Z,2.06
2023-11-20T15:56:56.263Z,1.98
2023-11-20T16:05:19.385Z,1.86
2023-11-20T16:13:42.602Z,1.81
2023-11-20T16:22:06.419Z,1.69
2023-11-20T16:30:29.857Z,1.58
2023-11-20T16:38:53.521Z,1.60
2023-11-20T16:47:23.053Z,1.58
2023-11-20T16:55:50.355Z,1.55
2023-11-20T17:04:13.760Z,1.60
2023-11-20T17:12:38.182Z,1.59
2023-11-20T17:21:02.470Z,1.48
2023-11-20T17:29:28.037Z,1.50
2023-11-20T17:37:57.621Z,1.45
2023-11-20T17:46:23.074Z,1.37
2023-11-20T17:54:46.689Z,1.36
2023-11-20T18:03:12.417Z,1.30
2023-11-20T18:11:38.364Z,1.22
2023-11-20T18:20:04.808Z,1.19
2023-11-20T18:28:31.050Z,1.14
2023-11-20T18:36:54.852Z,1.08
2023-11-20T18:45:18.065Z,1.11
2023-11-20T18:53:45.760Z,1.09
2023-11-20T19:02:08.877Z,1.07
2023-11-20T19:10:32.359Z,1.07
2023-11-20T19:18:56.723Z,1.04
2023-11-20T19:27:23.485Z,0.96
2023-11-20T19:35:48.108Z,1.00
2023-11-20T19:44:12.326Z,0.98
2023-11-20T19:52:38.354Z,0.88
2023-11-20T20:01:01.806Z,0.87
2023-11-20T20:09:24.827Z,0.82
2023-11-20T20:17:47.984Z,0.71
2023-11-20T20:26:11.083Z,0.76
2023-11-20T20:34:34.691Z,0.77
2023-11-20T20:43:01.408Z,0.72
2023-11-20T20:51:24.362Z,0.70
2023-11-20T20:59:48.864Z,0.66
2023-11-20T21:08:13.467Z,0.61
2023-11-20T21:16:37.643Z,0.71
2023-11-20T21:25:00.622Z,0.69
2023-11-20T21:33:24.335Z,0.67
2023-11-20T21:41:48.042Z,0.82
2023-11-20T21:50:11.038Z,0.90
2023-11-20T21:58:34.016Z,0.85
2023-11-20T22:06:57.377Z,0.75
2023-11-20T22:15:20.339Z,0.72
2023-11-20T22:23:43.331Z,0.68
2023-11-20T22:32:06.639Z,0.57
2023-11-20T22:40:29.977Z,0.54
2023-11-20T22:48:52.919Z,0.50
2023-11-20T22:57:15.899Z,0.39
2023-11-20T23:05:39.018Z,0.40
2023-11-20T23:14:04.126Z,0.31
2023-11-20T23:22:28.618Z,0.22
2023-11-20T23:30:51.905Z,0.22
2023-11-20T23:39:15.725Z,0.22
2023-11-20T23:47:38.829Z,0.11
2023-11-20T23:56:02.144Z,0.13
